createdAt,value
2022-08-05T00:15:58.215Z,1011.37
2022-08-05T00:45:38.154Z,1011.27
2022-08-05T01:15:36.178Z,1011.05
2022-08-05T01:45:22.496Z,1010.9
2022-08-05T02:15:22.489Z,1010.93
2022-08-05T02:45:24.262Z,1010.93
2022-08-05T03:15:23.825Z,1010.79
2022-08-05T03:45:23.617Z,1011.44
2022-08-05T04:15:24.381Z,1011.47
2022-08-05T04:45:31.092Z,1011.51
2022-08-05T05:15:57.663Z,1011.72
2022-08-05T05:45:22.557Z,1012.19
2022-08-05T06:15:24.041Z,1013.04
2022-08-05T06:45:44.635Z,1013.71
2022-08-05T07:15:34.511Z,1014.17
2022-08-05T07:45:57.682Z,1014.35
2022-08-05T08:15:37.092Z,1014.44
2022-08-05T08:45:27.211Z,1014.64
2022-08-05T09:15:22.584Z,1014.79
2022-08-05T09:46:07.106Z,1014.45
2022-08-05T10:15:22.564Z,1014.03
2022-08-05T10:45:30.708Z,1013.96
2022-08-05T11:15:22.583Z,1013.88
2022-08-05T11:45:27.009Z,1013.83
2022-08-05T12:15:35.888Z,1013.84
2022-08-05T12:45:22.604Z,1013.78
2022-08-05T13:15:24.505Z,1013.55
2022-08-05T13:45:22.610Z,1013.37
2022-08-05T14:16:08.603Z,1013.25
2022-08-05T14:45:22.637Z,1013.13
2022-08-05T15:15:54.333Z,1013.19
2022-08-05T15:45:37.154Z,1013.58
2022-08-05T16:15:22.651Z,1013.69
2022-08-05T16:46:07.051Z,1014.08
2022-08-05T17:15:22.648Z,1014.19
2022-08-05T17:45:23.011Z,1014.43
2022-08-05T18:15:22.653Z,1015.11
2022-08-05T18:45:22.654Z,1015.3
2022-08-05T19:15:57.378Z,1015.55
2022-08-05T19:45:22.670Z,1016.32
2022-08-05T20:15:23.255Z,1016.67
2022-08-05T20:45:22.685Z,1017
2022-08-05T21:15:22.684Z,1018.09
2022-08-05T21:45:25.257Z,1017.97
2022-08-05T22:15:56.449Z,1018.49
2022-08-05T22:45:22.701Z,1018.62
2022-08-05T23:15:22.700Z,1019.7
2022-08-05T23:45:23.690Z,1020.08
